createdAt,value
2018-10-21T00:02:28.367Z,11.30
2018-10-21T00:04:56.654Z,11.40
2018-10-21T00:07:24.906Z,11.30
2018-10-21T00:09:53.115Z,11.30
2018-10-21T00:12:21.364Z,11.30
2018-10-21T00:14:49.526Z,11.30
2018-10-21T00:17:17.776Z,11.30
2018-10-21T00:19:46.046Z,11.20
2018-10-21T00:22:15.089Z,11.20
2018-10-21T00:24:43.327Z,11.20
2018-10-21T00:27:11.613Z,11.20
2018-10-21T00:29:39.791Z,11.20
2018-10-21T00:32:07.992Z,11.10
2018-10-21T00:34:36.162Z,11.10
2018-10-21T00:37:04.762Z,11.10
2018-10-21T00:39:32.966Z,11.10
2018-10-21T00:42:01.179Z,11.10
2018-10-21T00:44:29.377Z,11.10
2018-10-21T00:46:57.581Z,11.10
2018-10-21T00:49:25.831Z,11.10
2018-10-21T00:51:54.062Z,11.00
2018-10-21T00:54:22.358Z,11.00
2018-10-21T00:56:50.556Z,11.00
2018-10-21T00:59:18.848Z,11.00
2018-10-21T01:01:47.057Z,11.00
2018-10-21T01:04:15.324Z,11.00
2018-10-21T01:06:43.490Z,11.00
2018-10-21T01:09:13.186Z,11.00
2018-10-21T01:11:42.341Z,11.00
2018-10-21T01:14:10.742Z,11.00
2018-10-21T01:16:38.947Z,11.00
2018-10-21T01:19:07.207Z,11.00
2018-10-21T01:21:36.022Z,11.00
2018-10-21T01:24:04.299Z,11.00
2018-10-21T01:26:32.503Z,11.00
2018-10-21T01:29:00.673Z,11.00
2018-10-21T01:31:28.859Z,11.00
2018-10-21T01:33:57.081Z,11.00
2018-10-21T01:36:25.644Z,11.00
2018-10-21T01:38:53.491Z,11.00
2018-10-21T01:41:21.717Z,11.00
2018-10-21T01:43:49.950Z,10.90
2018-10-21T01:46:18.178Z,10.90
2018-10-21T01:48:46.406Z,10.90
2018-10-21T01:51:14.746Z,10.90
2018-10-21T01:53:42.875Z,10.80
2018-10-21T01:56:11.066Z,10.80
2018-10-21T01:58:39.438Z,10.80
2018-10-21T02:01:07.646Z,10.80
2018-10-21T02:03:35.843Z,10.70
2018-10-21T02:06:04.019Z,10.70
2018-10-21T02:08:32.196Z,10.70
2018-10-21T02:11:00.379Z,10.70
2018-10-21T02:13:28.563Z,10.60
2018-10-21T02:15:56.800Z,10.60
2018-10-21T02:18:25.045Z,10.60
2018-10-21T02:20:53.222Z,10.60
2018-10-21T02:23:21.384Z,10.60
2018-10-21T02:25:49.614Z,10.60
2018-10-21T02:28:17.806Z,10.60
2018-10-21T02:30:46.015Z,10.60
2018-10-21T02:33:14.416Z,10.60
2018-10-21T02:35:42.517Z,10.50
2018-10-21T02:38:10.711Z,10.50
2018-10-21T02:42:01.447Z,10.50
2018-10-21T02:44:29.669Z,10.50
2018-10-21T02:46:58.315Z,10.50
2018-10-21T02:49:26.532Z,10.50
2018-10-21T02:52:00.269Z,10.50
2018-10-21T02:54:29.539Z,10.50
2018-10-21T02:56:57.767Z,10.50
2018-10-21T02:59:26.287Z,10.50
2018-10-21T03:01:54.691Z,10.50
2018-10-21T03:04:23.100Z,10.50
2018-10-21T03:06:51.586Z,10.50
2018-10-21T03:09:19.947Z,10.50
2018-10-21T03:11:48.036Z,10.50
2018-10-21T03:14:16.235Z,10.50
2018-10-21T03:16:44.442Z,10.60
2018-10-21T03:19:12.632Z,10.60
2018-10-21T03:21:40.824Z,10.60
2018-10-21T03:24:09.030Z,10.60
2018-10-21T03:26:37.191Z,10.60
2018-10-21T03:29:05.570Z,10.60
2018-10-21T03:31:33.727Z,10.60
2018-10-21T03:34:02.172Z,10.60
2018-10-21T03:36:30.204Z,10.60
2018-10-21T03:38:58.389Z,10.60
2018-10-21T03:41:26.551Z,10.50
2018-10-21T03:43:54.726Z,10.50
2018-10-21T03:46:22.900Z,10.50
2018-10-21T03:48:51.339Z,10.50
2018-10-21T03:51:19.514Z,10.50
2018-10-21T03:53:47.698Z,10.50
2018-10-21T03:56:15.859Z,10.50
2018-10-21T03:58:44.033Z,10.50
2018-10-21T04:01:12.207Z,10.50
2018-10-21T04:03:40.394Z,10.50
2018-10-21T04:06:08.568Z,10.50
2018-10-21T04:08:36.767Z,10.50
2018-10-21T04:11:04.986Z,10.50
2018-10-21T04:13:33.163Z,10.50
2018-10-21T04:16:01.421Z,10.50
2018-10-21T04:18:29.522Z,10.50
2018-10-21T04:20:57.675Z,10.50
2018-10-21T04:23:25.830Z,10.40
2018-10-21T04:25:53.979Z,10.40
2018-10-21T04:28:22.127Z,10.40
2018-10-21T04:30:50.306Z,10.40
2018-10-21T04:33:51.974Z,10.40
2018-10-21T04:36:24.832Z,10.40
2018-10-21T04:40:11.668Z,10.30
2018-10-21T04:42:39.723Z,10.20
2018-10-21T04:45:08.423Z,10.20
2018-10-21T04:47:36.578Z,10.10
2018-10-21T04:50:05.250Z,10.10
2018-10-21T04:52:33.880Z,10.00
2018-10-21T04:55:08.079Z,10.00
2018-10-21T04:57:37.235Z,10.00
2018-10-21T05:00:08.538Z,9.90
2018-10-21T05:02:36.706Z,9.90
2018-10-21T05:05:05.567Z,9.90
2018-10-21T05:07:33.797Z,9.90
2018-10-21T05:10:02.016Z,9.90
2018-10-21T05:12:30.288Z,9.90
2018-10-21T05:14:58.445Z,9.80
2018-10-21T05:17:26.639Z,9.90
2018-10-21T05:19:54.819Z,9.80
2018-10-21T05:22:23.028Z,9.80
2018-10-21T05:24:51.189Z,9.80
2018-10-21T05:27:19.363Z,9.90
2018-10-21T05:29:47.514Z,9.90
2018-10-21T05:32:15.678Z,9.90
2018-10-21T05:34:43.836Z,9.80
2018-10-21T05:37:11.990Z,9.90
2018-10-21T05:39:40.167Z,9.90
2018-10-21T05:42:08.348Z,9.90
2018-10-21T05:44:36.554Z,9.90
2018-10-21T05:47:05.153Z,10.00
2018-10-21T05:49:33.343Z,9.90
2018-10-21T05:52:01.625Z,9.90
2018-10-21T05:54:29.908Z,10.00
2018-10-21T05:56:58.267Z,9.90
2018-10-21T05:59:26.429Z,9.90
2018-10-21T06:01:54.694Z,10.00
2018-10-21T06:04:23.186Z,10.00
2018-10-21T06:06:51.451Z,10.00
2018-10-21T06:09:19.713Z,10.00
2018-10-21T06:11:47.998Z,10.00
2018-10-21T06:14:16.279Z,10.00
2018-10-21T06:16:49.996Z,10.00
2018-10-21T06:19:23.196Z,10.00
2018-10-21T06:21:51.388Z,10.00
2018-10-21T06:24:19.631Z,10.00
2018-10-21T06:26:47.839Z,10.00
2018-10-21T06:29:16.019Z,10.00
2018-10-21T06:31:44.170Z,10.00
2018-10-21T06:34:12.359Z,10.00
2018-10-21T06:36:40.678Z,10.00
2018-10-21T06:39:09.325Z,10.10
2018-10-21T06:41:37.486Z,10.10
2018-10-21T06:44:06.046Z,10.10
2018-10-21T06:46:34.294Z,10.10
2018-10-21T06:49:02.503Z,10.10
2018-10-21T06:51:30.758Z,10.20
2018-10-21T06:53:58.956Z,10.20
2018-10-21T06:56:27.170Z,10.20
2018-10-21T06:58:55.356Z,10.20
2018-10-21T07:01:23.534Z,10.30
2018-10-21T07:03:51.710Z,10.30
2018-10-21T07:06:27.470Z,10.30
2018-10-21T07:08:56.898Z,10.30
2018-10-21T07:11:25.109Z,10.30
2018-10-21T07:13:53.270Z,10.30
2018-10-21T07:16:21.522Z,10.30
2018-10-21T07:18:50.039Z,10.40
2018-10-21T07:21:18.491Z,10.40
2018-10-21T07:23:46.989Z,10.40
2018-10-21T07:26:15.270Z,10.40
2018-10-21T07:28:43.620Z,10.40
2018-10-21T07:31:11.899Z,10.50
2018-10-21T07:33:40.310Z,10.50
2018-10-21T07:36:08.596Z,10.50
2018-10-21T07:38:36.811Z,10.60
2018-10-21T07:41:05.069Z,10.60
2018-10-21T07:43:33.257Z,10.60
2018-10-21T07:46:03.127Z,10.70
2018-10-21T07:48:32.754Z,10.70
2018-10-21T07:51:00.959Z,10.70
2018-10-21T07:53:29.138Z,10.80
2018-10-21T07:55:57.391Z,10.80
2018-10-21T07:58:25.547Z,10.80
2018-10-21T08:00:54.535Z,10.90
2018-10-21T08:03:22.758Z,11.00
2018-10-21T08:06:02.395Z,11.00
2018-10-21T08:08:30.692Z,11.00
2018-10-21T08:10:58.798Z,11.10
2018-10-21T08:13:27.647Z,11.20
2018-10-21T08:15:55.852Z,11.30
2018-10-21T08:18:23.974Z,11.30
2018-10-21T08:20:52.159Z,11.50
2018-10-21T08:23:20.599Z,11.50
2018-10-21T08:25:50.100Z,11.60
2018-10-21T08:28:18.304Z,11.70
2018-10-21T08:30:46.563Z,11.80
2018-10-21T08:33:14.854Z,11.90
2018-10-21T08:35:43.123Z,12.00
2018-10-21T08:38:11.670Z,12.10
2018-10-21T08:40:40.318Z,12.10
2018-10-21T08:43:10.013Z,12.20
2018-10-21T08:45:38.994Z,12.30
2018-10-21T08:48:07.937Z,12.40
2018-10-21T08:50:36.274Z,12.50
2018-10-21T08:53:05.064Z,12.60
2018-10-21T08:55:33.263Z,12.60
2018-10-21T08:58:01.585Z,12.70
2018-10-21T09:00:30.090Z,12.90
2018-10-21T09:02:58.297Z,12.90
2018-10-21T09:05:26.659Z,13.00
2018-10-21T09:07:54.855Z,13.10
2018-10-21T09:10:23.331Z,13.20
2018-10-21T09:12:51.316Z,13.30
2018-10-21T09:15:19.496Z,13.30
2018-10-21T09:17:47.698Z,13.40
2018-10-21T09:20:17.822Z,13.50
2018-10-21T09:22:46.004Z,13.60
2018-10-21T09:25:14.848Z,13.70
2018-10-21T09:27:44.032Z,13.80
2018-10-21T09:30:14.955Z,13.90
2018-10-21T09:32:43.103Z,14.10
2018-10-21T09:35:13.978Z,14.20
2018-10-21T09:37:42.498Z,14.30
2018-10-21T09:40:12.922Z,14.40
2018-10-21T09:42:41.137Z,14.50
2018-10-21T09:45:10.964Z,14.60
2018-10-21T09:47:39.380Z,14.70
2018-10-21T09:50:07.638Z,14.80
2018-10-21T09:52:35.767Z,14.90
2018-10-21T09:55:04.118Z,15.00
2018-10-21T09:57:32.360Z,15.20
2018-10-21T10:00:00.540Z,15.30
2018-10-21T10:02:34.128Z,15.40
2018-10-21T10:05:02.316Z,15.50
2018-10-21T10:07:30.463Z,15.60
2018-10-21T10:09:58.701Z,15.60
2018-10-21T10:12:26.846Z,15.70
2018-10-21T10:14:55.072Z,15.80
2018-10-21T10:17:23.310Z,15.80
2018-10-21T10:19:51.598Z,15.90
2018-10-21T10:22:19.794Z,16.00
2018-10-21T10:24:47.971Z,16.10
2018-10-21T10:27:16.216Z,16.30
2018-10-21T10:29:44.404Z,16.30
2018-10-21T10:32:12.721Z,16.40
2018-10-21T10:34:40.902Z,16.50
2018-10-21T10:37:09.160Z,16.70
2018-10-21T10:39:37.335Z,16.80
2018-10-21T10:42:05.832Z,16.90
2018-10-21T10:44:33.786Z,17.00
2018-10-21T10:47:01.965Z,17.10
2018-10-21T10:49:30.191Z,17.20
2018-10-21T10:51:58.366Z,17.30
2018-10-21T10:54:26.528Z,17.40
2018-10-21T10:56:54.835Z,17.50
2018-10-21T10:59:23.033Z,17.60
2018-10-21T11:01:51.192Z,17.70
2018-10-21T11:04:19.491Z,17.80
2018-10-21T11:06:47.654Z,17.80
2018-10-21T11:09:15.808Z,17.90
2018-10-21T11:11:43.995Z,17.90
2018-10-21T11:14:12.203Z,17.90
2018-10-21T11:16:40.363Z,17.90
2018-10-21T11:19:08.638Z,17.90
2018-10-21T11:21:36.829Z,17.80
2018-10-21T11:24:04.978Z,17.80
2018-10-21T11:26:33.381Z,17.70
2018-10-21T11:29:01.863Z,17.70
2018-10-21T11:31:30.140Z,17.60
2018-10-21T11:33:58.383Z,17.50
2018-10-21T11:36:26.573Z,17.50
2018-10-21T11:39:03.526Z,17.50
2018-10-21T11:41:31.762Z,17.50
2018-10-21T11:43:59.998Z,17.40
2018-10-21T11:46:28.202Z,17.40
2018-10-21T11:48:56.411Z,17.40
2018-10-21T11:51:24.597Z,17.40
2018-10-21T11:53:52.778Z,17.40
2018-10-21T11:56:21.062Z,17.40
2018-10-21T11:58:49.264Z,17.40
2018-10-21T12:01:17.521Z,17.40
2018-10-21T12:03:45.603Z,17.40
2018-10-21T12:06:13.794Z,17.40
2018-10-21T12:08:42.030Z,17.30
2018-10-21T12:11:10.205Z,17.30
2018-10-21T12:13:38.394Z,17.30
2018-10-21T12:16:06.633Z,17.30
2018-10-21T12:18:34.778Z,17.30
2018-10-21T12:21:02.971Z,17.30
2018-10-21T12:23:31.213Z,17.30
2018-10-21T12:25:59.307Z,17.30
2018-10-21T12:28:28.225Z,17.30
2018-10-21T12:30:56.688Z,17.20
2018-10-21T12:33:24.819Z,17.20
2018-10-21T12:35:52.980Z,17.20
2018-10-21T12:38:21.207Z,17.20
2018-10-21T12:40:49.403Z,17.20
2018-10-21T12:43:17.613Z,17.20
2018-10-21T12:45:45.825Z,17.20
2018-10-21T12:48:14.635Z,17.20
2018-10-21T12:50:42.831Z,17.10
2018-10-21T12:53:11.137Z,17.10
2018-10-21T12:55:44.616Z,17.20
2018-10-21T12:58:13.015Z,17.20
2018-10-21T13:00:41.147Z,17.20
2018-10-21T13:03:09.386Z,17.20
2018-10-21T13:05:37.554Z,17.20
2018-10-21T13:08:05.763Z,17.20
2018-10-21T13:10:33.962Z,17.20
2018-10-21T13:13:02.284Z,17.20
2018-10-21T13:15:30.391Z,17.20
2018-10-21T13:17:58.686Z,17.20
2018-10-21T13:20:26.874Z,17.20
2018-10-21T13:22:55.127Z,17.20
2018-10-21T13:25:23.323Z,17.20
2018-10-21T13:27:51.536Z,17.20
2018-10-21T13:30:19.850Z,17.20
2018-10-21T13:32:48.027Z,17.30
2018-10-21T13:35:16.210Z,17.30
2018-10-21T13:37:44.455Z,17.30
2018-10-21T13:40:12.683Z,17.30
2018-10-21T13:42:40.822Z,17.30
2018-10-21T13:45:09.014Z,17.30
2018-10-21T13:47:37.202Z,17.30
2018-10-21T13:50:07.393Z,17.30
2018-10-21T13:52:35.690Z,17.30
2018-10-21T13:55:03.838Z,17.30
2018-10-21T13:57:32.093Z,17.40
2018-10-21T14:00:00.350Z,17.40
2018-10-21T14:02:28.512Z,17.40
2018-10-21T14:04:56.715Z,17.40
2018-10-21T14:07:24.944Z,17.40
2018-10-21T14:09:53.099Z,17.40
2018-10-21T14:12:21.392Z,17.30
2018-10-21T14:14:49.624Z,17.40
2018-10-21T14:17:17.747Z,17.40
2018-10-21T14:19:45.927Z,17.40
2018-10-21T14:22:14.559Z,17.40
2018-10-21T14:24:42.783Z,17.40
2018-10-21T14:27:10.878Z,17.40
2018-10-21T14:29:39.150Z,17.40
2018-10-21T14:32:07.351Z,17.40
2018-10-21T14:34:35.543Z,17.40
2018-10-21T14:37:03.828Z,17.40
2018-10-21T14:39:32.203Z,17.40
2018-10-21T14:42:00.492Z,17.40
2018-10-21T14:44:28.703Z,17.40
2018-10-21T14:46:56.945Z,17.40
2018-10-21T14:49:26.154Z,17.40
2018-10-21T14:51:54.346Z,17.30
2018-10-21T14:54:22.562Z,17.30
2018-10-21T14:56:50.780Z,17.30
2018-10-21T14:59:18.928Z,17.40
2018-10-21T15:01:47.143Z,17.30
2018-10-21T15:04:15.390Z,17.40
2018-10-21T15:06:43.519Z,17.30
2018-10-21T15:09:13.453Z,17.30
2018-10-21T15:11:42.108Z,17.30
2018-10-21T15:14:11.192Z,17.30
2018-10-21T15:16:39.617Z,17.30
2018-10-21T15:19:07.769Z,17.30
2018-10-21T15:21:36.279Z,17.30
2018-10-21T15:24:04.428Z,17.30
2018-10-21T15:26:32.723Z,17.30
2018-10-21T15:29:00.910Z,17.30
2018-10-21T15:31:29.075Z,17.30
2018-10-21T15:33:57.447Z,17.30
2018-10-21T15:36:25.713Z,17.30
2018-10-21T15:38:53.877Z,17.20
2018-10-21T15:41:22.083Z,17.20
2018-10-21T15:43:50.250Z,17.20
2018-10-21T15:46:18.514Z,17.20
2018-10-21T15:48:46.831Z,17.20
2018-10-21T15:51:14.975Z,17.20
2018-10-21T15:53:43.150Z,17.20
2018-10-21T15:56:11.402Z,17.20
2018-10-21T15:58:39.479Z,17.20
2018-10-21T16:01:07.642Z,17.10
2018-10-21T16:03:35.826Z,17.10
2018-10-21T16:06:03.987Z,17.10
2018-10-21T16:08:32.204Z,17.00
2018-10-21T16:11:00.405Z,17.00
2018-10-21T16:13:28.579Z,16.90
2018-10-21T16:15:56.786Z,16.90
2018-10-21T16:18:24.948Z,16.80
2018-10-21T16:20:53.124Z,16.70
2018-10-21T16:23:21.300Z,16.70
2018-10-21T16:25:49.549Z,16.60
2018-10-21T16:28:17.662Z,16.50
2018-10-21T16:30:45.803Z,16.50
2018-10-21T16:33:13.963Z,16.40
2018-10-21T16:35:42.160Z,16.30
2018-10-21T16:38:10.348Z,16.30
2018-10-21T16:40:38.714Z,16.20
2018-10-21T16:43:07.066Z,16.10
2018-10-21T16:45:35.306Z,16.10
2018-10-21T16:48:03.530Z,16.00
2018-10-21T16:50:31.681Z,16.00
2018-10-21T16:52:59.966Z,15.90
2018-10-21T16:55:28.142Z,15.80
2018-10-21T16:57:56.383Z,15.80
2018-10-21T17:00:24.722Z,15.70
2018-10-21T17:02:52.755Z,15.60
2018-10-21T17:05:20.928Z,15.60
2018-10-21T17:07:49.115Z,15.50
2018-10-21T17:10:17.783Z,15.40
2018-10-21T17:12:45.668Z,15.40
2018-10-21T17:15:13.866Z,15.30
2018-10-21T17:17:42.687Z,15.20
2018-10-21T17:20:13.554Z,15.10
2018-10-21T17:22:42.600Z,15.10
2018-10-21T17:25:10.965Z,15.00
2018-10-21T17:27:39.179Z,14.90
2018-10-21T17:30:09.899Z,14.90
2018-10-21T17:32:38.158Z,14.80
2018-10-21T17:35:07.027Z,14.80
2018-10-21T17:37:35.201Z,14.70
2018-10-21T17:40:03.455Z,14.70
2018-10-21T17:42:31.571Z,14.70
2018-10-21T17:44:59.742Z,14.60
2018-10-21T17:47:28.038Z,14.60
2018-10-21T17:49:56.414Z,14.50
2018-10-21T17:52:24.637Z,14.50
2018-10-21T17:54:52.762Z,14.50
2018-10-21T17:57:20.937Z,14.50
2018-10-21T17:59:49.171Z,14.40
2018-10-21T18:02:17.487Z,14.40
2018-10-21T18:04:45.660Z,14.40
2018-10-21T18:07:13.938Z,14.30
2018-10-21T18:09:42.043Z,14.30
2018-10-21T18:12:10.272Z,14.30
2018-10-21T18:14:38.466Z,14.30
2018-10-21T18:17:06.722Z,14.30
2018-10-21T18:19:34.898Z,14.20
2018-10-21T18:22:03.167Z,14.20
2018-10-21T18:24:31.274Z,14.20
2018-10-21T18:26:59.460Z,14.10
2018-10-21T18:29:27.809Z,14.10
2018-10-21T18:31:56.103Z,14.10
2018-10-21T18:34:24.286Z,14.10
2018-10-21T18:36:52.503Z,14.00
2018-10-21T18:39:20.690Z,14.00
2018-10-21T18:41:48.871Z,14.00
2018-10-21T18:44:19.892Z,14.00
2018-10-21T18:46:54.201Z,13.90
2018-10-21T18:52:26.889Z,13.90
2018-10-21T18:54:59.338Z,13.80
2018-10-21T18:57:44.080Z,13.80
2018-10-21T19:00:22.538Z,13.80
2018-10-21T19:03:15.081Z,13.80
2018-10-21T19:05:47.372Z,13.70
2018-10-21T19:08:18.225Z,13.70
2018-10-21T19:11:02.376Z,13.60
2018-10-21T19:13:33.186Z,13.60
2018-10-21T19:16:02.573Z,13.60
2018-10-21T19:18:38.592Z,13.60
2018-10-21T19:21:08.175Z,13.60
2018-10-21T19:23:39.865Z,13.50
2018-10-21T19:26:10.886Z,13.50
2018-10-21T19:28:44.624Z,13.50
2018-10-21T19:31:13.079Z,13.50
2018-10-21T19:33:41.769Z,13.50
2018-10-21T19:36:09.997Z,13.50
2018-10-21T19:38:38.517Z,13.50
2018-10-21T19:41:07.743Z,13.40
2018-10-21T19:43:35.974Z,13.40
2018-10-21T19:46:05.005Z,13.40
2018-10-21T19:48:33.179Z,13.40
2018-10-21T19:51:01.413Z,13.30
2018-10-21T19:53:29.666Z,13.40
2018-10-21T19:55:57.843Z,13.30
2018-10-21T19:58:26.037Z,13.30
2018-10-21T20:00:56.092Z,13.30
2018-10-21T20:03:24.206Z,13.30
2018-10-21T20:05:52.415Z,13.30
2018-10-21T20:08:20.606Z,13.20
2018-10-21T20:10:48.870Z,13.20
2018-10-21T20:13:17.129Z,13.20
2018-10-21T20:15:45.290Z,13.20
2018-10-21T20:18:14.465Z,13.20
2018-10-21T20:20:42.957Z,13.20
2018-10-21T20:23:11.119Z,13.10
2018-10-21T20:25:42.375Z,13.10
2018-10-21T20:28:10.664Z,13.10
2018-10-21T20:30:38.835Z,13.10
2018-10-21T20:33:07.144Z,13.10
2018-10-21T20:35:35.293Z,13.10
2018-10-21T20:38:03.460Z,13.10
2018-10-21T20:40:31.743Z,13.10
2018-10-21T20:42:59.962Z,13.20
2018-10-21T20:45:28.143Z,13.20
2018-10-21T20:47:56.325Z,13.20
2018-10-21T20:50:24.487Z,13.20
2018-10-21T20:52:52.715Z,13.30
2018-10-21T20:55:20.896Z,13.30
2018-10-21T20:57:49.102Z,13.30
2018-10-21T21:00:17.345Z,13.30
2018-10-21T21:02:45.470Z,13.40
2018-10-21T21:05:13.668Z,13.40
2018-10-21T21:07:41.915Z,13.40
2018-10-21T21:10:10.202Z,13.50
2018-10-21T21:12:38.314Z,13.50
2018-10-21T21:15:06.970Z,13.50
2018-10-21T21:17:35.133Z,13.50
2018-10-21T21:20:03.290Z,13.60
2018-10-21T21:22:31.442Z,13.60
2018-10-21T21:24:59.613Z,13.60
2018-10-21T21:27:27.778Z,13.70
2018-10-21T21:29:55.932Z,13.70
2018-10-21T21:32:24.090Z,13.70
2018-10-21T21:34:52.246Z,13.80
2018-10-21T21:37:20.419Z,13.80
2018-10-21T21:39:48.566Z,13.80
2018-10-21T21:42:16.845Z,13.80
2018-10-21T21:44:44.926Z,13.80
2018-10-21T21:47:13.094Z,13.80
2018-10-21T21:49:41.266Z,13.80
2018-10-21T21:52:09.441Z,13.90
2018-10-21T21:54:37.568Z,13.90
2018-10-21T21:57:05.759Z,13.90
2018-10-21T21:59:33.911Z,13.90
2018-10-21T22:02:02.062Z,13.90
2018-10-21T22:04:30.222Z,13.90
2018-10-21T22:06:58.394Z,13.90
2018-10-21T22:09:26.543Z,14.00
2018-10-21T22:11:54.705Z,13.90
2018-10-21T22:14:22.891Z,13.90
2018-10-21T22:16:51.115Z,14.00
2018-10-21T22:19:19.280Z,14.00
2018-10-21T22:21:47.466Z,14.00
2018-10-21T22:24:15.674Z,14.00
2018-10-21T22:26:43.812Z,14.00
2018-10-21T22:29:11.997Z,14.00
2018-10-21T22:31:40.222Z,14.00
2018-10-21T22:34:08.439Z,14.00
2018-10-21T22:36:36.491Z,14.00
2018-10-21T22:39:06.043Z,14.00
2018-10-21T22:41:34.219Z,14.00
2018-10-21T22:44:02.397Z,14.00
2018-10-21T22:46:30.584Z,14.00
2018-10-21T22:48:58.675Z,14.00
2018-10-21T22:51:26.952Z,14.00
2018-10-21T22:53:55.149Z,14.00
2018-10-21T22:56:23.300Z,14.00
2018-10-21T22:58:51.622Z,14.00
2018-10-21T23:01:19.788Z,14.10
2018-10-21T23:03:48.159Z,14.10
2018-10-21T23:06:16.369Z,14.10
2018-10-21T23:08:44.466Z,14.00
2018-10-21T23:11:12.690Z,14.10
2018-10-21T23:13:40.860Z,14.10
2018-10-21T23:16:09.426Z,14.10
2018-10-21T23:18:37.599Z,14.10
2018-10-21T23:21:05.999Z,14.10
2018-10-21T23:23:34.150Z,14.10
2018-10-21T23:26:02.306Z,14.10
2018-10-21T23:28:30.511Z,14.10
2018-10-21T23:30:58.685Z,14.10
2018-10-21T23:33:26.861Z,14.20
2018-10-21T23:35:55.007Z,14.20
2018-10-21T23:38:23.154Z,14.20
2018-10-21T23:40:51.395Z,14.20
2018-10-21T23:43:19.571Z,14.20
2018-10-21T23:45:47.719Z,14.20
2018-10-21T23:48:15.900Z,14.20
2018-10-21T23:50:44.034Z,14.20
2018-10-21T23:53:12.204Z,14.20
2018-10-21T23:55:40.351Z,14.20
2018-10-21T23:58:08.554Z,14.20
